createdAt,value
2018-12-12T00:01:38.738Z,81.56
2018-12-12T00:04:08.815Z,82.03
2018-12-12T00:06:38.812Z,81.71
2018-12-12T00:09:10.962Z,81.98
2018-12-12T00:11:43.174Z,82.34
2018-12-12T00:14:14.381Z,82.05
2018-12-12T00:16:44.569Z,82.15
2018-12-12T00:19:15.284Z,81.64
2018-12-12T00:21:46.182Z,81.95
2018-12-12T00:24:18.499Z,81.45
2018-12-12T00:26:48.635Z,81.53
2018-12-12T00:29:18.802Z,81.24
2018-12-12T00:31:50.033Z,81.11
2018-12-12T00:34:20.105Z,81.11
2018-12-12T00:36:50.644Z,81.83
2018-12-12T00:39:20.752Z,82.04
2018-12-12T00:41:50.762Z,81.66
2018-12-12T00:44:21.459Z,81.26
2018-12-12T00:46:53.251Z,81.17
2018-12-12T00:49:24.075Z,81.49
2018-12-12T00:51:55.956Z,81.73
2018-12-12T00:54:26.094Z,81.38
2018-12-12T00:56:56.943Z,81.62
2018-12-12T00:59:27.784Z,81.64
2018-12-12T01:01:58.276Z,81.68
2018-12-12T01:04:28.757Z,81.52
2018-12-12T01:06:59.633Z,82.33
2018-12-12T01:09:29.776Z,82.03
2018-12-12T01:12:06.689Z,82.30
2018-12-12T01:14:36.613Z,82.41
2018-12-12T01:17:07.364Z,82.60
2018-12-12T01:19:38.633Z,83.07
2018-12-12T01:22:09.438Z,83.43
2018-12-12T01:24:40.160Z,83.20
2018-12-12T01:27:10.788Z,83.11
2018-12-12T01:29:41.030Z,82.71
2018-12-12T01:32:11.133Z,82.65
2018-12-12T01:34:41.431Z,82.47
2018-12-12T01:37:11.821Z,82.99
2018-12-12T01:39:42.802Z,82.64
2018-12-12T01:42:14.402Z,82.60
2018-12-12T01:44:45.114Z,82.48
2018-12-12T01:47:15.851Z,82.78
2018-12-12T01:49:47.348Z,82.63
2018-12-12T01:52:17.423Z,82.35
2018-12-12T01:54:48.087Z,82.50
2018-12-12T01:57:18.809Z,81.91
2018-12-12T01:59:48.865Z,82.59
2018-12-12T02:02:18.881Z,82.24
2018-12-12T02:04:49.006Z,82.30
2018-12-12T02:07:19.290Z,82.45
2018-12-12T02:09:50.181Z,83.03
2018-12-12T02:12:20.400Z,83.48
2018-12-12T02:14:50.342Z,82.80
2018-12-12T02:17:20.381Z,82.84
2018-12-12T02:19:51.492Z,82.82
2018-12-12T02:22:21.634Z,83.28
2018-12-12T02:24:52.237Z,83.09
2018-12-12T02:27:22.547Z,83.22
2018-12-12T02:29:52.603Z,83.13
2018-12-12T02:32:23.139Z,83.15
2018-12-12T02:34:54.383Z,83.11
2018-12-12T02:37:24.890Z,83.30
2018-12-12T02:39:55.554Z,83.43
2018-12-12T02:42:25.728Z,83.03
2018-12-12T02:44:56.414Z,83.37
2018-12-12T02:47:26.500Z,83.45
2018-12-12T02:49:57.687Z,83.06
2018-12-12T02:52:28.394Z,83.43
2018-12-12T02:54:58.530Z,83.03
2018-12-12T02:57:29.137Z,83.62
2018-12-12T02:59:59.366Z,83.55
2018-12-12T03:02:30.844Z,83.60
2018-12-12T03:05:00.771Z,83.87
2018-12-12T03:07:30.969Z,83.65
2018-12-12T03:10:00.979Z,83.70
2018-12-12T03:12:31.624Z,83.72
2018-12-12T03:15:01.678Z,83.49
2018-12-12T03:17:33.643Z,83.34
2018-12-12T03:20:03.950Z,82.93
2018-12-12T03:22:35.304Z,82.99
2018-12-12T03:25:05.477Z,83.29
2018-12-12T03:27:35.505Z,83.60
2018-12-12T03:30:06.493Z,83.72
2018-12-12T03:32:37.157Z,83.64
2018-12-12T03:35:07.394Z,83.49
2018-12-12T03:37:37.473Z,83.97
2018-12-12T03:40:08.551Z,83.41
2018-12-12T03:42:39.759Z,83.53
2018-12-12T03:45:10.175Z,83.89
2018-12-12T03:47:40.928Z,83.99
2018-12-12T03:50:11.888Z,83.91
2018-12-12T03:52:42.371Z,83.84
2018-12-12T03:55:12.476Z,83.94
2018-12-12T03:57:42.788Z,83.87
2018-12-12T04:00:12.876Z,83.92
2018-12-12T04:02:42.969Z,84.17
2018-12-12T04:05:13.642Z,83.83
2018-12-12T04:07:43.847Z,83.35
2018-12-12T04:10:14.843Z,82.96
2018-12-12T04:12:45.481Z,82.74
2018-12-12T04:15:15.764Z,82.77
2018-12-12T04:17:45.758Z,82.48
2018-12-12T04:20:16.655Z,82.24
2018-12-12T04:22:48.533Z,82.39
2018-12-12T04:25:18.555Z,82.36
2018-12-12T04:27:49.279Z,82.10
2018-12-12T04:30:19.316Z,82.22
2018-12-12T04:32:49.365Z,81.85
2018-12-12T04:35:19.990Z,82.20
2018-12-12T04:37:50.071Z,82.19
2018-12-12T04:40:20.602Z,82.41
2018-12-12T04:42:51.396Z,82.38
2018-12-12T04:45:23.024Z,82.76
2018-12-12T04:47:53.136Z,82.81
2018-12-12T04:50:23.187Z,82.69
2018-12-12T04:52:53.702Z,83.07
2018-12-12T04:55:23.723Z,83.34
2018-12-12T04:57:53.745Z,83.17
2018-12-12T05:00:24.470Z,83.51
2018-12-12T05:02:55.346Z,83.60
2018-12-12T05:05:25.435Z,83.53
2018-12-12T05:07:55.498Z,83.37
2018-12-12T05:10:26.119Z,83.35
2018-12-12T05:12:56.697Z,84.07
2018-12-12T05:15:26.543Z,83.63
2018-12-12T05:17:56.623Z,83.73
2018-12-12T05:20:26.713Z,83.95
2018-12-12T05:22:57.334Z,84.80
2018-12-12T05:25:27.275Z,84.83
2018-12-12T05:27:57.986Z,84.93
2018-12-12T05:30:28.829Z,85.42
2018-12-12T05:32:58.919Z,85.69
2018-12-12T05:35:29.465Z,85.50
2018-12-12T05:37:59.589Z,85.40
2018-12-12T05:40:31.160Z,85.98
2018-12-12T05:43:01.131Z,86.06
2018-12-12T05:45:31.440Z,85.24
2018-12-12T05:48:01.494Z,85.36
2018-12-12T05:50:33.275Z,85.63
2018-12-12T05:53:03.523Z,85.70
2018-12-12T05:55:33.634Z,85.86
2018-12-12T05:58:03.729Z,85.43
2018-12-12T06:00:33.707Z,85.43
2018-12-12T06:03:04.299Z,85.32
2018-12-12T06:05:35.129Z,85.43
2018-12-12T06:08:05.137Z,85.64
2018-12-12T06:10:35.210Z,85.32
2018-12-12T06:13:06.054Z,85.89
2018-12-12T06:15:36.735Z,85.89
2018-12-12T06:18:06.848Z,86.33
2018-12-12T06:20:36.935Z,86.26
2018-12-12T06:23:07.451Z,86.35
2018-12-12T06:25:38.009Z,86.21
2018-12-12T06:28:08.740Z,86.47
2018-12-12T06:30:38.860Z,86.53
2018-12-12T06:33:09.001Z,85.93
2018-12-12T06:35:38.894Z,85.91
2018-12-12T06:38:10.462Z,85.81
2018-12-12T06:40:41.097Z,85.29
2018-12-12T06:43:11.118Z,84.58
2018-12-12T06:45:41.069Z,84.38
2018-12-12T06:48:11.974Z,84.24
2018-12-12T06:50:41.823Z,84.34
2018-12-12T06:53:12.635Z,84.32
2018-12-12T06:55:42.746Z,84.47
2018-12-12T06:58:12.821Z,85.07
2018-12-12T07:00:42.884Z,85.50
2018-12-12T07:03:13.724Z,85.66
2018-12-12T07:05:43.666Z,85.27
2018-12-12T07:08:13.742Z,85.86
2018-12-12T07:10:43.835Z,86.24
2018-12-12T07:13:14.374Z,86.03
2018-12-12T07:15:44.857Z,85.99
2018-12-12T07:18:14.886Z,86.10
2018-12-12T07:20:44.906Z,86.14
2018-12-12T07:23:16.359Z,86.31
2018-12-12T07:25:46.801Z,86.10
2018-12-12T07:28:17.630Z,86.35
2018-12-12T07:30:47.820Z,86.47
2018-12-12T07:33:19.869Z,86.08
2018-12-12T07:35:49.864Z,85.92
2018-12-12T07:38:20.747Z,86.03
2018-12-12T07:40:51.284Z,86.36
2018-12-12T07:43:21.393Z,86.38
2018-12-12T07:45:52.111Z,86.30
2018-12-12T07:48:22.860Z,86.94
2018-12-12T07:50:53.023Z,86.73
2018-12-12T07:53:24.382Z,86.52
2018-12-12T07:55:54.389Z,86.34
2018-12-12T07:58:25.246Z,85.97
2018-12-12T08:00:55.569Z,85.24
2018-12-12T08:03:26.227Z,84.71
2018-12-12T08:05:56.272Z,84.51
2018-12-12T08:08:27.079Z,84.48
2018-12-12T08:10:57.190Z,84.86
2018-12-12T08:13:27.995Z,84.91
2018-12-12T08:15:59.347Z,85.10
2018-12-12T08:18:29.492Z,84.70
2018-12-12T08:21:00.042Z,84.73
2018-12-12T08:23:31.612Z,84.55
2018-12-12T08:26:02.335Z,84.64
2018-12-12T08:28:32.469Z,84.44
2018-12-12T08:31:04.198Z,84.30
2018-12-12T08:33:34.406Z,84.55
2018-12-12T08:36:04.545Z,84.32
2018-12-12T08:38:36.757Z,84.79
2018-12-12T08:41:06.967Z,84.51
2018-12-12T08:43:37.198Z,84.60
2018-12-12T08:46:07.252Z,84.15
2018-12-12T08:48:38.051Z,83.56
2018-12-12T08:51:08.106Z,82.65
2018-12-12T08:53:38.205Z,82.53
2018-12-12T08:56:08.168Z,82.46
2018-12-12T08:58:38.311Z,82.59
2018-12-12T09:01:08.379Z,82.21
2018-12-12T09:03:38.564Z,81.98
2018-12-12T09:06:09.027Z,82.19
2018-12-12T09:08:39.606Z,81.66
2018-12-12T09:11:09.495Z,81.13
2018-12-12T09:13:39.577Z,81.20
2018-12-12T09:16:09.592Z,81.10
2018-12-12T09:18:40.269Z,80.85
2018-12-12T09:21:12.093Z,81.09
2018-12-12T09:23:42.984Z,80.75
2018-12-12T09:26:13.653Z,80.92
2018-12-12T09:28:44.788Z,80.76
2018-12-12T09:31:14.887Z,81.42
2018-12-12T09:33:45.654Z,80.69
2018-12-12T09:36:15.944Z,80.35
2018-12-12T09:38:46.606Z,80.80
2018-12-12T09:41:16.741Z,80.43
2018-12-12T09:43:46.706Z,79.83
2018-12-12T09:46:16.831Z,80.89
2018-12-12T09:48:48.685Z,80.27
2018-12-12T09:51:19.660Z,80.74
2018-12-12T09:53:49.686Z,81.02
2018-12-12T09:56:19.698Z,79.90
2018-12-12T09:58:50.681Z,78.91
2018-12-12T10:01:20.821Z,77.27
2018-12-12T10:03:52.177Z,77.04
2018-12-12T10:06:23.307Z,76.65
2018-12-12T10:08:53.928Z,77.07
2018-12-12T10:11:24.096Z,77.71
2018-12-12T10:13:55.048Z,77.75
2018-12-12T10:16:26.301Z,77.72
2018-12-12T10:18:56.817Z,76.98
2018-12-12T10:21:27.013Z,75.70
2018-12-12T10:23:58.166Z,77.02
2018-12-12T10:26:28.850Z,77.47
2018-12-12T10:28:59.274Z,77.34
2018-12-12T10:31:30.386Z,78.09
2018-12-12T10:34:01.424Z,78.02
2018-12-12T10:36:31.615Z,78.85
2018-12-12T10:39:01.962Z,77.59
2018-12-12T10:41:33.289Z,78.32
2018-12-12T10:44:04.111Z,78.14
2018-12-12T10:46:34.946Z,78.33
2018-12-12T10:49:05.050Z,77.66
2018-12-12T10:51:35.831Z,78.56
2018-12-12T10:54:06.775Z,78.93
2018-12-12T10:56:36.867Z,78.96
2018-12-12T10:59:07.570Z,78.61
2018-12-12T11:01:42.700Z,79.38
2018-12-12T11:04:12.675Z,78.05
2018-12-12T11:06:43.430Z,78.54
2018-12-12T11:09:13.503Z,78.87
2018-12-12T11:11:44.191Z,78.25
2018-12-12T11:14:14.348Z,78.87
2018-12-12T11:16:44.368Z,78.07
2018-12-12T11:19:14.332Z,78.41
2018-12-12T11:21:44.394Z,78.03
2018-12-12T11:24:15.533Z,77.45
2018-12-12T11:26:45.656Z,78.42
2018-12-12T11:29:15.702Z,78.39
2018-12-12T11:31:45.803Z,78.81
2018-12-12T11:34:16.237Z,78.94
2018-12-12T11:36:46.249Z,78.34
2018-12-12T11:39:17.271Z,78.52
2018-12-12T11:41:47.385Z,78.09
2018-12-12T11:44:17.507Z,77.60
2018-12-12T11:46:49.382Z,77.21
2018-12-12T11:49:19.631Z,78.27
2018-12-12T11:51:50.466Z,78.53
2018-12-12T11:54:21.564Z,77.97
2018-12-12T11:56:53.372Z,78.37
2018-12-12T11:59:24.633Z,78.46
2018-12-12T12:01:54.819Z,77.80
2018-12-12T12:04:24.980Z,78.76
2018-12-12T12:06:55.052Z,79.05
2018-12-12T12:09:25.839Z,79.07
2018-12-12T12:11:55.957Z,79.52
2018-12-12T12:14:26.737Z,79.36
2018-12-12T12:16:57.232Z,78.52
2018-12-12T12:19:27.621Z,78.68
2018-12-12T12:21:58.300Z,79.16
2018-12-12T12:24:28.360Z,79.02
2018-12-12T12:26:58.417Z,78.05
2018-12-12T12:29:29.523Z,79.12
2018-12-12T12:31:59.793Z,78.84
2018-12-12T12:34:29.979Z,78.43
2018-12-12T12:37:00.764Z,78.17
2018-12-12T12:39:31.455Z,77.88
2018-12-12T12:42:02.376Z,78.63
2018-12-12T12:44:32.645Z,77.83
2018-12-12T12:47:03.123Z,78.12
2018-12-12T12:49:33.192Z,77.66
2018-12-12T12:52:03.839Z,77.82
2018-12-12T12:54:34.715Z,77.10
2018-12-12T12:57:04.861Z,77.81
2018-12-12T12:59:34.943Z,78.36
2018-12-12T13:02:05.765Z,77.62
2018-12-12T13:04:36.718Z,78.14
2018-12-12T13:07:06.847Z,77.77
2018-12-12T13:09:38.880Z,77.43
2018-12-12T13:12:09.372Z,78.20
2018-12-12T13:14:39.613Z,77.82
2018-12-12T13:17:10.119Z,77.35
2018-12-12T13:19:40.934Z,78.13
2018-12-12T13:22:11.504Z,78.07
2018-12-12T13:24:41.620Z,77.89
2018-12-12T13:27:11.663Z,77.96
2018-12-12T13:29:42.474Z,77.50
2018-12-12T13:32:12.713Z,77.68
2018-12-12T13:34:43.020Z,76.90
2018-12-12T13:37:13.067Z,77.33
2018-12-12T13:39:43.571Z,77.95
2018-12-12T13:42:14.651Z,76.28
2018-12-12T13:44:45.436Z,76.15
2018-12-12T13:47:17.421Z,76.68
2018-12-12T13:49:47.847Z,76.57
2018-12-12T13:52:18.410Z,76.61
2018-12-12T13:54:49.195Z,77.13
2018-12-12T13:57:19.855Z,77.86
2018-12-12T13:59:50.121Z,77.53
2018-12-12T14:02:20.166Z,78.69
2018-12-12T14:04:50.172Z,78.07
2018-12-12T14:07:20.355Z,77.53
2018-12-12T14:09:51.053Z,77.92
2018-12-12T14:12:21.284Z,78.08
2018-12-12T14:14:51.516Z,77.99
2018-12-12T14:17:23.405Z,78.22
2018-12-12T14:19:54.111Z,78.47
2018-12-12T14:22:25.225Z,79.40
2018-12-12T14:24:57.465Z,78.97
2018-12-12T14:27:28.858Z,79.34
2018-12-12T14:29:59.065Z,79.42
2018-12-12T14:32:28.992Z,79.36
2018-12-12T14:34:59.727Z,79.44
2018-12-12T14:37:30.382Z,79.13
2018-12-12T14:40:00.634Z,79.66
2018-12-12T14:42:30.700Z,79.14
2018-12-12T14:45:00.828Z,79.04
2018-12-12T14:47:30.812Z,78.72
2018-12-12T14:50:01.826Z,78.88
2018-12-12T14:52:31.946Z,79.62
2018-12-12T14:55:02.843Z,79.28
2018-12-12T14:57:33.578Z,79.78
2018-12-12T15:00:04.783Z,80.06
2018-12-12T15:02:35.459Z,80.13
2018-12-12T15:05:05.904Z,79.77
2018-12-12T15:07:36.749Z,79.65
2018-12-12T15:10:07.379Z,79.68
2018-12-12T15:12:37.408Z,80.29
2018-12-12T15:15:07.839Z,80.97
2018-12-12T15:17:37.891Z,81.11
2018-12-12T15:20:08.847Z,80.63
2018-12-12T15:22:39.601Z,80.88
2018-12-12T15:25:09.930Z,81.88
2018-12-12T15:27:40.163Z,81.53
2018-12-12T15:30:10.407Z,81.62
2018-12-12T15:32:40.446Z,81.78
2018-12-12T15:35:10.547Z,81.41
2018-12-12T15:37:41.790Z,81.17
2018-12-12T15:40:11.950Z,80.85
2018-12-12T15:42:42.083Z,81.23
2018-12-12T15:45:12.964Z,81.51
2018-12-12T15:47:43.543Z,82.12
2018-12-12T15:50:13.607Z,82.05
2018-12-12T15:52:44.208Z,81.68
2018-12-12T15:55:14.870Z,81.72
2018-12-12T15:57:45.039Z,82.07
2018-12-12T16:00:17.021Z,82.52
2018-12-12T16:02:48.862Z,82.51
2018-12-12T16:05:19.772Z,81.87
2018-12-12T16:07:51.515Z,81.75
2018-12-12T16:10:21.574Z,82.17
2018-12-12T16:12:51.745Z,82.71
2018-12-12T16:15:22.275Z,82.01
2018-12-12T16:17:53.016Z,82.25
2018-12-12T16:20:23.896Z,82.31
2018-12-12T16:22:54.035Z,82.12
2018-12-12T16:25:24.248Z,82.30
2018-12-12T16:27:54.445Z,82.26
2018-12-12T16:30:24.604Z,82.16
2018-12-12T16:32:54.672Z,81.85
2018-12-12T16:35:25.514Z,81.66
2018-12-12T16:37:55.760Z,81.91
2018-12-12T16:40:25.940Z,81.71
2018-12-12T16:42:55.988Z,81.58
2018-12-12T16:45:26.143Z,81.61
2018-12-12T16:47:56.150Z,81.83
2018-12-12T16:50:26.872Z,81.21
2018-12-12T16:52:57.695Z,80.61
2018-12-12T16:55:27.765Z,80.38
2018-12-12T16:57:58.033Z,80.45
2018-12-12T17:00:28.949Z,79.18
2018-12-12T17:02:59.099Z,79.14
2018-12-12T17:05:29.352Z,78.64
2018-12-12T17:08:00.206Z,79.18
2018-12-12T17:10:30.957Z,78.44
2018-12-12T17:13:01.861Z,77.58
2018-12-12T17:15:32.494Z,78.07
2018-12-12T17:18:03.293Z,78.57
2018-12-12T17:20:33.329Z,78.02
2018-12-12T17:23:03.419Z,78.16
2018-12-12T17:25:34.206Z,78.01
2018-12-12T17:28:04.251Z,78.07
2018-12-12T17:30:35.395Z,77.54
2018-12-12T17:33:05.544Z,78.19
2018-12-12T17:35:36.005Z,78.46
2018-12-12T17:38:06.182Z,77.93
2018-12-12T17:40:36.309Z,76.78
2018-12-12T17:43:07.632Z,76.43
2018-12-12T17:45:37.762Z,75.98
2018-12-12T17:48:07.937Z,76.65
2018-12-12T17:50:38.219Z,76.53
2018-12-12T17:53:09.160Z,76.30
2018-12-12T17:55:39.399Z,76.50
2018-12-12T17:58:09.543Z,76.60
2018-12-12T18:00:39.747Z,76.51
2018-12-12T18:03:09.967Z,76.92
2018-12-12T18:05:40.149Z,76.67
2018-12-12T18:08:10.915Z,76.71
2018-12-12T18:10:41.325Z,76.96
2018-12-12T18:13:11.943Z,76.87
2018-12-12T18:15:43.031Z,77.41
2018-12-12T18:18:13.641Z,76.75
2018-12-12T18:20:43.867Z,76.66
2018-12-12T18:23:13.945Z,76.86
2018-12-12T18:25:44.109Z,76.94
2018-12-12T18:28:14.759Z,76.83
2018-12-12T18:30:46.352Z,76.45
2018-12-12T18:33:17.089Z,76.57
2018-12-12T18:35:47.845Z,76.65
2018-12-12T18:38:18.355Z,76.62
2018-12-12T18:40:48.504Z,76.55
2018-12-12T18:43:19.410Z,76.79
2018-12-12T18:45:49.614Z,77.40
2018-12-12T18:48:19.674Z,77.54
2018-12-12T18:50:50.023Z,77.66
2018-12-12T18:53:20.907Z,77.47
2018-12-12T18:55:52.483Z,77.30
2018-12-12T18:58:22.444Z,77.34
2018-12-12T19:00:52.711Z,77.38
2018-12-12T19:03:22.671Z,77.23
2018-12-12T19:05:52.873Z,78.38
2018-12-12T19:08:23.034Z,77.79
2018-12-12T19:10:53.860Z,78.08
2018-12-12T19:13:24.394Z,78.08
2018-12-12T19:15:55.045Z,77.79
2018-12-12T19:18:25.121Z,77.93
2018-12-12T19:21:00.110Z,78.01
2018-12-12T19:23:28.898Z,78.03
2018-12-12T19:25:59.695Z,77.96
2018-12-12T19:28:29.834Z,77.97
2018-12-12T19:31:00.516Z,78.49
2018-12-12T19:33:30.766Z,78.90
2018-12-12T19:36:02.771Z,78.89
2018-12-12T19:38:34.227Z,78.84
2018-12-12T19:41:05.876Z,79.16
2018-12-12T19:43:37.419Z,79.80
2018-12-12T19:46:07.734Z,79.57
2018-12-12T19:48:38.311Z,80.21
2018-12-12T19:51:08.487Z,80.21
2018-12-12T19:53:39.579Z,80.00
2018-12-12T19:56:09.837Z,80.16
2018-12-12T19:58:41.327Z,80.36
2018-12-12T20:01:11.558Z,80.58
2018-12-12T20:03:41.861Z,80.52
2018-12-12T20:06:12.283Z,80.42
2018-12-12T20:08:42.439Z,80.00
2018-12-12T20:11:12.690Z,79.94
2018-12-12T20:13:42.660Z,80.56
2018-12-12T20:16:13.034Z,80.49
2018-12-12T20:18:43.345Z,80.57
2018-12-12T20:21:14.136Z,80.94
2018-12-12T20:23:45.038Z,80.39
2018-12-12T20:26:15.687Z,80.60
2018-12-12T20:28:46.302Z,80.33
2018-12-12T20:31:16.984Z,80.36
2018-12-12T20:33:47.221Z,79.57
2018-12-12T20:36:17.395Z,79.23
2018-12-12T20:38:48.664Z,78.82
2018-12-12T20:41:18.945Z,79.53
2018-12-12T20:43:49.074Z,80.36
2018-12-12T20:46:19.390Z,79.99
2018-12-12T20:48:49.505Z,80.39
2018-12-12T20:51:19.639Z,79.36
2018-12-12T20:53:49.885Z,78.77
2018-12-12T20:56:20.657Z,78.41
2018-12-12T20:58:50.768Z,78.25
2018-12-12T21:01:21.009Z,78.56
2018-12-12T21:03:52.550Z,78.95
2018-12-12T21:06:22.722Z,79.17
2018-12-12T21:08:53.369Z,79.06
2018-12-12T21:11:24.048Z,79.45
2018-12-12T21:13:54.183Z,79.33
2018-12-12T21:16:24.191Z,79.31
2018-12-12T21:18:54.346Z,79.30
2018-12-12T21:21:25.146Z,79.29
2018-12-12T21:23:55.379Z,78.88
2018-12-12T21:26:26.476Z,79.08
2018-12-12T21:28:58.263Z,78.82
2018-12-12T21:31:28.282Z,78.45
2018-12-12T21:33:58.769Z,78.98
2018-12-12T21:36:30.093Z,78.87
2018-12-12T21:39:01.606Z,79.17
2018-12-12T21:41:31.743Z,78.88
2018-12-12T21:44:01.910Z,79.24
2018-12-12T21:46:32.589Z,79.79
2018-12-12T21:49:03.327Z,80.37
2018-12-12T21:51:33.452Z,80.68
2018-12-12T21:54:04.929Z,79.81
2018-12-12T21:56:35.849Z,80.58
2018-12-12T21:59:05.712Z,81.16
2018-12-12T22:01:35.598Z,81.46
2018-12-12T22:04:05.435Z,82.10
2018-12-12T22:06:35.336Z,81.48
2018-12-12T22:09:08.087Z,82.36
2018-12-12T22:11:38.728Z,82.35
2018-12-12T22:14:09.931Z,82.22
2018-12-12T22:16:40.760Z,81.49
2018-12-12T22:19:11.265Z,81.89
2018-12-12T22:21:41.557Z,81.23
2018-12-12T22:24:11.616Z,80.99
2018-12-12T22:26:41.773Z,81.15
2018-12-12T22:29:11.925Z,80.86
2018-12-12T22:31:42.863Z,80.93
2018-12-12T22:34:12.884Z,81.03
2018-12-12T22:36:43.128Z,81.68
2018-12-12T22:39:13.266Z,81.98
2018-12-12T22:41:43.383Z,80.95
2018-12-12T22:44:13.361Z,81.35
2018-12-12T22:46:44.001Z,81.31
2018-12-12T22:49:14.199Z,81.03
2018-12-12T22:51:45.142Z,81.36
2018-12-12T22:54:15.307Z,81.55
2018-12-12T22:56:45.361Z,81.13
2018-12-12T22:59:16.231Z,80.93
2018-12-12T23:01:47.068Z,80.74
2018-12-12T23:04:17.190Z,80.57
2018-12-12T23:06:48.828Z,80.28
2018-12-12T23:09:19.058Z,80.46
2018-12-12T23:11:50.537Z,81.26
2018-12-12T23:14:21.780Z,81.32
2018-12-12T23:16:52.008Z,80.62
2018-12-12T23:19:23.517Z,81.01
2018-12-12T23:21:53.664Z,81.49
2018-12-12T23:24:25.176Z,81.49
2018-12-12T23:26:56.227Z,80.67
2018-12-12T23:29:26.307Z,80.38
2018-12-12T23:31:57.215Z,80.31
2018-12-12T23:34:28.623Z,80.64
2018-12-12T23:36:58.748Z,80.48
2018-12-12T23:39:28.656Z,81.03
2018-12-12T23:41:58.773Z,80.57
2018-12-12T23:44:29.918Z,80.49
2018-12-12T23:47:00.596Z,80.66
2018-12-12T23:49:30.697Z,81.06
2018-12-12T23:52:00.986Z,81.39
2018-12-12T23:54:31.106Z,81.46
2018-12-12T23:57:02.177Z,81.66
2018-12-12T23:59:33.012Z,82.18
